METAR Data
IDs: Format: Raw Decoded Include TAF

Data at: 2055 UTC 02 Aug 2021

KDEC 021954Z 03006KT 10SM FEW050 SCT075 26/16 A3013 RMK AO2 SLP198 T02560161